Time;durP1;ratioP1;P1;durP2;ratioP2;P2;SDS_P1;SDS_P2;PMS_P1;PMS_P2;Temp;Humidity;BMP_temperature;BMP_pressure;BME280_temperature;BME280_humidity;BME280_pressure;Samples;Min_cycle;Max_cycle;Signal;HPM_P1;HPM_P2
2021/11/18 00:00:34;;;;;;;50.60;16.30;;;6.60;99.90;;;;;;5057175;28;20104;-71
2021/11/18 00:03:03;;;;;;;42.20;16.35;;;6.50;99.90;;;;;;5057197;28;20032;-70
2021/11/18 00:05:31;;;;;;;37.50;14.93;;;6.40;99.90;;;;;;5057325;28;20075;-71
2021/11/18 00:07:59;;;;;;;43.13;15.43;;;6.40;99.90;;;;;;5057389;28;20028;-71
2021/11/18 00:10:37;;;;;;;43.00;14.93;;;6.30;99.90;;;;;;5056439;28;20417;-71
2021/11/18 00:13:07;;;;;;;56.40;18.15;;;6.30;99.90;;;;;;5056201;28;20128;-71
2021/11/18 00:15:35;;;;;;;45.22;16.98;;;6.20;99.90;;;;;;5056137;28;20024;-71
2021/11/18 00:18:09;;;;;;;68.15;15.70;;;6.20;99.90;;;;;;5056804;28;20048;-71
2021/11/18 00:20:53;;;;;;;60.75;17.67;;;6.20;99.90;;;;;;5056526;28;20078;-71
2021/11/18 00:23:22;;;;;;;47.50;16.05;;;6.10;99.90;;;;;;5055976;28;20032;-71
2021/11/18 00:25:50;;;;;;;52.15;18.02;;;6.10;99.90;;;;;;5056572;28;20021;-71
2021/11/18 00:28:17;;;;;;;44.40;16.58;;;6.00;99.90;;;;;;5056694;28;20025;-71
2021/11/18 00:30:45;;;;;;;47.03;16.15;;;6.00;99.90;;;;;;5060487;28;20021;-71
2021/11/18 00:33:12;;;;;;;46.17;14.48;;;6.00;99.90;;;;;;5061462;28;20465;-71
2021/11/18 00:35:40;;;;;;;47.42;16.63;;;5.90;99.90;;;;;;5060929;28;20013;-71
2021/11/18 00:38:09;;;;;;;48.67;16.70;;;5.90;99.90;;;;;;5060585;28;20120;-71
2021/11/18 00:40:39;;;;;;;41.65;16.38;;;6.00;99.90;;;;;;5060635;28;20064;-71
2021/11/18 00:43:09;;;;;;;49.05;15.75;;;6.00;99.90;;;;;;5060882;28;20033;-71
2021/11/18 00:45:36;;;;;;;61.67;15.63;;;6.00;99.90;;;;;;5042784;28;20116;-71
2021/11/18 00:48:05;;;;;;;54.95;16.15;;;6.00;99.90;;;;;;5060024;28;20040;-71
2021/11/18 00:50:38;;;;;;;47.75;14.93;;;6.10;99.90;;;;;;5059435;28;20024;-71
2021/11/18 00:53:06;;;;;;;52.00;15.80;;;6.20;99.90;;;;;;5042087;28;20155;-71
2021/11/18 00:55:35;;;;;;;45.88;14.23;;;6.20;99.90;;;;;;5059978;28;20105;-71
2021/11/18 00:58:04;;;;;;;43.83;14.85;;;6.30;99.90;;;;;;5041637;28;20079;-71
2021/11/18 01:00:35;;;;;;;48.65;14.23;;;6.30;99.90;;;;;;5059340;28;20112;-71
2021/11/18 01:03:03;;;;;;;41.65;14.77;;;6.30;99.90;;;;;;5060045;28;20024;-71
2021/11/18 01:05:36;;;;;;;40.75;14.88;;;6.40;99.90;;;;;;5059196;28;20029;-71
2021/11/18 01:08:05;;;;;;;38.83;13.43;;;6.30;99.90;;;;;;5059880;28;20025;-71
2021/11/18 01:10:43;;;;;;;49.08;14.35;;;6.40;99.90;;;;;;5042324;28;20032;-71
2021/11/18 01:13:11;;;;;;;47.92;16.58;;;6.40;99.90;;;;;;5060691;28;20025;-71
2021/11/18 01:15:44;;;;;;;43.78;14.60;;;6.40;99.90;;;;;;5059923;28;20017;-71
2021/11/18 01:18:13;;;;;;;43.65;14.00;;;6.50;99.90;;;;;;5060113;28;20033;-71
2021/11/18 01:20:43;;;;;;;44.90;14.63;;;6.40;99.90;;;;;;5060106;28;20325;-71
2021/11/18 01:23:15;;;;;;;44.92;14.10;;;6.40;99.90;;;;;;5060503;28;20351;-71
2021/11/18 01:25:43;;;;;;;47.35;14.55;;;6.40;99.90;;;;;;5059777;28;20324;-71
2021/11/18 01:28:12;;;;;;;40.85;14.30;;;6.40;99.90;;;;;;5059462;28;20068;-71
2021/11/18 01:30:41;;;;;;;50.47;17.38;;;6.40;99.90;;;;;;5041091;28;20379;-71
2021/11/18 01:33:11;;;;;;;42.17;13.82;;;6.30;99.90;;;;;;5058922;28;20028;-71
2021/11/18 01:35:39;;;;;;;46.85;14.30;;;6.30;99.90;;;;;;5058657;28;20029;-71
2021/11/18 01:38:07;;;;;;;47.95;13.63;;;6.30;99.90;;;;;;5059237;28;20056;-71
2021/11/18 01:40:39;;;;;;;40.22;14.77;;;6.30;99.90;;;;;;5058483;28;20047;-71
2021/11/18 01:43:09;;;;;;;38.15;16.23;;;6.30;99.90;;;;;;5058970;28;20379;-71
2021/11/18 01:45:38;;;;;;;46.45;15.80;;;6.30;99.90;;;;;;5058415;28;20367;-71
2021/11/18 01:48:06;;;;;;;40.72;13.88;;;6.30;99.90;;;;;;5058936;28;20043;-71
2021/11/18 01:50:36;;;;;;;44.40;15.27;;;6.20;99.90;;;;;;5059831;28;20305;-71
2021/11/18 01:53:14;;;;;;;46.65;14.77;;;6.20;99.90;;;;;;5059290;28;20056;-71
2021/11/18 01:55:43;;;;;;;47.38;15.45;;;6.20;99.90;;;;;;5059286;28;20108;-71
2021/11/18 01:58:13;;;;;;;48.05;15.40;;;6.20;99.90;;;;;;5059692;28;20031;-71
2021/11/18 02:00:50;;;;;;;44.55;14.63;;;6.20;99.90;;;;;;5059140;28;20027;-71
2021/11/18 02:03:18;;;;;;;43.42;13.65;;;6.30;99.90;;;;;;5059565;28;20017;-71
2021/11/18 02:06:04;;;;;;;49.80;14.60;;;6.30;99.90;;;;;;5040572;28;20121;-71
2021/11/18 02:08:32;;;;;;;50.05;14.55;;;6.40;99.90;;;;;;5058564;28;20025;-71
2021/11/18 02:11:03;;;;;;;46.65;16.05;;;6.40;99.90;;;;;;5040325;28;20025;-71
2021/11/18 02:13:31;;;;;;;44.42;16.92;;;6.50;99.90;;;;;;5057985;28;20032;-71
2021/11/18 02:16:00;;;;;;;35.85;15.23;;;6.50;99.90;;;;;;5040237;28;20025;-71
2021/11/18 02:18:35;;;;;;;49.83;14.70;;;6.60;99.90;;;;;;5058032;28;20044;-71
2021/11/18 02:21:11;;;;;;;37.65;14.27;;;6.60;99.90;;;;;;5057769;28;20425;-71
2021/11/18 02:23:47;;;;;;;40.83;14.68;;;6.60;99.90;;;;;;5057881;28;20108;-72
2021/11/18 02:26:17;;;;;;;44.05;15.10;;;6.60;99.90;;;;;;5059121;28;20105;-71
2021/11/18 02:28:47;;;;;;;46.03;15.57;;;6.70;99.90;;;;;;5059287;28;20021;-71
2021/11/18 02:31:26;;;;;;;44.30;14.68;;;6.60;99.90;;;;;;5058727;28;20078;-71
2021/11/18 02:33:54;;;;;;;44.78;16.20;;;6.60;99.90;;;;;;5059055;28;20021;-71
2021/11/18 02:36:22;;;;;;;41.45;15.30;;;6.60;99.90;;;;;;5040665;28;20096;-71
2021/11/18 02:38:50;;;;;;;39.42;15.35;;;6.60;99.90;;;;;;5058619;28;20025;-71
2021/11/18 02:41:21;;;;;;;48.50;15.63;;;6.50;99.90;;;;;;5058354;28;20044;-71
2021/11/18 02:43:49;;;;;;;42.85;16.83;;;6.50;99.90;;;;;;5057346;28;20451;-71
2021/11/18 02:46:16;;;;;;;40.75;16.15;;;6.40;99.90;;;;;;5057211;28;20112;-71
2021/11/18 02:48:44;;;;;;;45.42;16.58;;;6.40;99.90;;;;;;5057445;28;20045;-71
2021/11/18 02:51:17;;;;;;;42.90;15.45;;;6.50;99.90;;;;;;5056502;28;20321;-71
2021/11/18 02:53:45;;;;;;;42.85;16.98;;;6.50;99.90;;;;;;5057239;28;20025;-71
2021/11/18 02:56:12;;;;;;;40.28;14.75;;;6.50;99.90;;;;;;5039595;28;20020;-71
2021/11/18 02:58:41;;;;;;;52.90;18.27;;;6.50;99.90;;;;;;5057288;28;20021;-71
2021/11/18 03:01:28;;;;;;;47.47;17.20;;;6.50;99.90;;;;;;5057049;28;20021;-71
2021/11/18 03:03:56;;;;;;;54.05;18.10;;;6.60;99.90;;;;;;5057638;28;20025;-71
2021/11/18 03:06:24;;;;;;;47.78;16.58;;;6.60;99.90;;;;;;5057741;28;20421;-71
2021/11/18 03:08:52;;;;;;;42.28;16.75;;;6.60;99.90;;;;;;5058590;28;20024;-70
2021/11/18 03:11:21;;;;;;;40.40;15.98;;;6.60;99.90;;;;;;5058331;28;20075;-71
2021/11/18 03:13:49;;;;;;;58.33;18.42;;;6.70;99.90;;;;;;5058018;28;20025;-71
2021/11/18 03:16:17;;;;;;;43.78;16.58;;;6.70;99.90;;;;;;5057707;28;20025;-71
2021/11/18 03:18:44;;;;;;;42.33;17.13;;;6.70;99.90;;;;;;5040059;28;20368;-71
2021/11/18 03:21:16;;;;;;;46.55;17.33;;;6.70;99.90;;;;;;5022837;28;20052;-71
2021/11/18 03:23:44;;;;;;;50.90;16.90;;;6.70;99.90;;;;;;5056960;28;20017;-71
2021/11/18 03:26:14;;;;;;;40.55;17.88;;;6.80;99.90;;;;;;5057291;28;20078;-71
2021/11/18 03:28:42;;;;;;;44.20;16.38;;;6.70;99.90;;;;;;5056638;28;20021;-71
2021/11/18 03:31:12;;;;;;;42.83;16.55;;;6.80;99.90;;;;;;5057651;28;20294;-71
2021/11/18 03:33:47;;;;;;;43.67;17.10;;;6.80;99.90;;;;;;5056982;28;20024;-71
2021/11/18 03:36:17;;;;;;;51.53;19.40;;;6.80;99.90;;;;;;5056914;28;20321;-71
2021/11/18 03:38:44;;;;;;;44.53;18.42;;;6.70;99.90;;;;;;5056530;28;20017;-71
2021/11/18 03:41:13;;;;;;;49.75;18.00;;;6.70;99.90;;;;;;5057181;28;20483;-71
2021/11/18 03:43:51;;;;;;;41.75;17.70;;;6.70;99.90;;;;;;5057787;28;20029;-71
2021/11/18 03:46:24;;;;;;;44.88;18.13;;;6.70;99.90;;;;;;5057483;28;20032;-71
2021/11/18 03:48:52;;;;;;;53.25;18.27;;;6.60;99.90;;;;;;5060347;28;20032;-71
2021/11/18 03:51:20;;;;;;;48.83;19.10;;;6.60;99.90;;;;;;5077223;28;20104;-71
2021/11/18 03:53:47;;;;;;;47.65;20.63;;;6.70;99.90;;;;;;5077751;28;20017;-71
2021/11/18 03:56:21;;;;;;;48.95;20.17;;;6.70;99.90;;;;;;5077311;28;20099;-71
2021/11/18 03:58:49;;;;;;;41.78;18.65;;;6.60;99.90;;;;;;5077310;28;20028;-71
2021/11/18 04:01:17;;;;;;;48.75;19.40;;;6.60;99.90;;;;;;5076313;28;20021;-71
2021/11/18 04:03:46;;;;;;;48.65;18.98;;;6.60;99.90;;;;;;5079675;28;20021;-71
2021/11/18 04:06:14;;;;;;;51.95;19.95;;;6.60;99.90;;;;;;5080277;28;20390;-71
2021/11/18 04:08:42;;;;;;;50.78;20.30;;;6.60;99.90;;;;;;5080690;28;20059;-71
2021/11/18 04:11:10;;;;;;;51.35;21.27;;;6.60;99.90;;;;;;5080588;28;20108;-71
2021/11/18 04:13:38;;;;;;;58.20;20.85;;;6.60;99.90;;;;;;5080443;28;20099;-71
2021/11/18 04:16:07;;;;;;;49.42;20.13;;;6.60;99.90;;;;;;5080202;28;20012;-71
2021/11/18 04:18:35;;;;;;;51.60;19.88;;;6.70;99.90;;;;;;5080792;28;20052;-71
2021/11/18 04:21:02;;;;;;;46.78;20.38;;;6.70;99.90;;;;;;5081157;28;20416;-71
2021/11/18 04:23:30;;;;;;;52.08;21.60;;;6.70;99.90;;;;;;5063530;28;20016;-71
2021/11/18 04:25:59;;;;;;;54.83;20.92;;;6.70;99.90;;;;;;5081491;28;20021;-71
2021/11/18 04:28:27;;;;;;;46.95;20.88;;;6.80;99.90;;;;;;5080849;28;20032;-71
2021/11/18 04:31:15;;;;;;;50.00;20.98;;;6.80;99.90;;;;;;5080892;28;20485;-71
2021/11/18 04:33:43;;;;;;;50.38;19.63;;;6.80;99.90;;;;;;5081536;28;20206;-71
2021/11/18 04:36:13;;;;;;;43.92;21.10;;;6.80;99.90;;;;;;5062936;28;20025;-71
2021/11/18 04:38:43;;;;;;;43.83;18.67;;;6.80;99.90;;;;;;5079960;28;20021;-71
2021/11/18 04:41:11;;;;;;;47.38;20.27;;;6.80;99.90;;;;;;5079389;28;20025;-71
2021/11/18 04:43:40;;;;;;;50.38;21.20;;;6.80;99.90;;;;;;5080429;28;20017;-71
2021/11/18 04:46:10;;;;;;;46.47;22.13;;;6.90;99.90;;;;;;5079462;28;20025;-71
2021/11/18 04:48:39;;;;;;;47.40;19.55;;;6.90;99.90;;;;;;5061018;28;20384;-71
2021/11/18 04:51:09;;;;;;;48.15;19.15;;;6.90;99.90;;;;;;5059481;28;20021;-71
2021/11/18 04:53:37;;;;;;;45.22;19.83;;;6.90;99.90;;;;;;5060409;28;20029;-71
2021/11/18 04:56:06;;;;;;;47.75;20.45;;;6.90;99.90;;;;;;5059456;28;20051;-71
2021/11/18 04:58:35;;;;;;;46.50;21.63;;;6.90;99.90;;;;;;5059994;28;20101;-71
2021/11/18 05:01:04;;;;;;;40.72;19.88;;;6.90;99.90;;;;;;5060541;28;20028;-71
2021/11/18 05:03:33;;;;;;;53.47;21.67;;;6.90;99.90;;;;;;5060855;28;20024;-71
2021/11/18 05:06:01;;;;;;;49.28;21.00;;;6.90;99.90;;;;;;5060080;28;20322;-71
2021/11/18 05:08:29;;;;;;;42.38;20.38;;;7.00;99.90;;;;;;5060292;28;20037;-71
2021/11/18 05:10:58;;;;;;;44.70;20.08;;;6.90;99.90;;;;;;5060563;28;20051;-71
2021/11/18 05:13:28;;;;;;;44.72;21.70;;;7.00;99.90;;;;;;5060447;28;20025;-71
2021/11/18 05:15:58;;;;;;;52.58;19.75;;;7.00;99.90;;;;;;5059274;28;20425;-71
2021/11/18 05:18:27;;;;;;;54.90;22.25;;;7.00;99.90;;;;;;5059361;28;20036;-71
2021/11/18 05:20:56;;;;;;;52.30;22.77;;;7.00;99.90;;;;;;5059152;28;20025;-71
2021/11/18 05:23:25;;;;;;;45.58;21.80;;;7.00;99.90;;;;;;5059106;28;20079;-71
2021/11/18 05:25:53;;;;;;;57.63;22.58;;;7.00;99.90;;;;;;5058901;28;20450;-71
2021/11/18 05:28:20;;;;;;;49.20;22.17;;;7.00;99.90;;;;;;5059026;28;20104;-71
2021/11/18 05:30:48;;;;;;;37.90;19.20;;;7.00;99.90;;;;;;5059279;28;20013;-71
2021/11/18 05:33:18;;;;;;;49.90;20.00;;;7.00;99.90;;;;;;5058886;28;20056;-71
2021/11/18 05:35:47;;;;;;;47.22;20.58;;;7.00;99.90;;;;;;5058664;28;20017;-71
2021/11/18 05:38:15;;;;;;;37.58;17.98;;;7.00;99.90;;;;;;5059558;28;20025;-71
2021/11/18 05:40:44;;;;;;;50.25;20.38;;;7.00;99.90;;;;;;5059451;28;20028;-71
2021/11/18 05:43:12;;;;;;;43.72;21.17;;;7.00;99.90;;;;;;5059606;28;20035;-71
2021/11/18 05:45:40;;;;;;;39.38;19.08;;;7.00;99.90;;;;;;5041730;28;20052;-71
2021/11/18 05:48:10;;;;;;;58.58;23.95;;;7.00;99.90;;;;;;5066942;28;20441;-71
2021/11/18 05:50:44;;;;;;;52.45;22.38;;;7.00;99.90;;;;;;5079378;28;20070;-71
2021/11/18 05:53:12;;;;;;;46.63;19.50;;;7.00;99.90;;;;;;5080323;28;20091;-71
2021/11/18 05:55:39;;;;;;;42.22;20.52;;;7.00;99.90;;;;;;5079347;28;20021;-71
2021/11/18 05:58:08;;;;;;;58.28;22.10;;;7.10;99.90;;;;;;5078602;28;20074;-71
2021/11/18 06:00:38;;;;;;;44.25;19.95;;;7.00;99.90;;;;;;5077056;28;20028;-71
2021/11/18 06:03:06;;;;;;;49.78;20.88;;;7.00;99.90;;;;;;5078958;28;20024;-71
2021/11/18 06:05:33;;;;;;;40.05;15.88;;;7.00;99.90;;;;;;5078099;28;20111;-71
2021/11/18 06:08:01;;;;;;;47.78;20.95;;;7.10;99.90;;;;;;5076953;28;20032;-71
2021/11/18 06:10:32;;;;;;;40.92;18.40;;;7.10;99.90;;;;;;5078056;28;20020;-71
2021/11/18 06:13:04;;;;;;;45.92;19.55;;;7.10;99.90;;;;;;5078582;28;20093;-71
2021/11/18 06:15:33;;;;;;;39.15;18.25;;;7.10;99.90;;;;;;5078244;28;20025;-71
2021/11/18 06:18:00;;;;;;;66.18;20.63;;;7.10;99.90;;;;;;5078271;28;20025;-71
2021/11/18 06:20:28;;;;;;;44.90;20.15;;;7.10;99.90;;;;;;5077500;28;20094;-71
2021/11/18 06:22:56;;;;;;;46.95;20.02;;;7.10;99.90;;;;;;5079248;28;20025;-71
2021/11/18 06:25:27;;;;;;;45.67;17.92;;;7.10;99.90;;;;;;5079099;28;20021;-71
2021/11/18 06:27:58;;;;;;;41.28;19.35;;;7.10;99.90;;;;;;5077824;28;20031;-70
2021/11/18 06:30:53;;;;;;;52.10;20.20;;;7.10;99.90;;;;;;5078352;28;20448;-71
2021/11/18 06:33:21;;;;;;;42.10;19.05;;;7.10;99.90;;;;;;5078816;28;20033;-70
2021/11/18 06:35:50;;;;;;;42.42;18.63;;;7.10;99.90;;;;;;5078190;28;20071;-70
2021/11/18 06:38:18;;;;;;;46.03;19.55;;;7.10;99.90;;;;;;5077477;28;20451;-71
2021/11/18 06:40:50;;;;;;;38.75;17.95;;;7.10;99.90;;;;;;5077424;28;20133;-72
2021/11/18 06:43:20;;;;;;;43.45;17.17;;;7.20;99.90;;;;;;5077447;28;20032;-72
2021/11/18 06:45:49;;;;;;;61.90;20.70;;;7.10;99.90;;;;;;5077656;28;20366;-70
2021/11/18 06:48:22;;;;;;;49.17;18.55;;;7.10;99.90;;;;;;5061734;28;20056;-71
2021/11/18 06:50:50;;;;;;;42.38;19.50;;;7.10;99.90;;;;;;5057240;28;20017;-71
2021/11/18 06:53:19;;;;;;;46.47;17.55;;;7.10;99.90;;;;;;5057444;28;20068;-72
2021/11/18 06:55:46;;;;;;;45.03;18.20;;;7.10;99.90;;;;;;5057354;28;20082;-71
2021/11/18 06:58:14;;;;;;;43.67;19.20;;;7.10;99.90;;;;;;5058635;28;20029;-71
2021/11/18 07:00:42;;;;;;;48.25;19.23;;;7.20;99.90;;;;;;5058113;28;20028;-71
2021/11/18 07:03:11;;;;;;;39.20;16.50;;;7.20;99.90;;;;;;5058189;28;20059;-72
2021/11/18 07:05:40;;;;;;;42.50;19.13;;;7.20;99.90;;;;;;5040247;28;20029;-70
2021/11/18 07:08:08;;;;;;;43.58;17.35;;;7.20;99.90;;;;;;5057887;28;20021;-70
2021/11/18 07:10:38;;;;;;;54.85;19.80;;;7.20;99.90;;;;;;5040249;28;20048;-70
2021/11/18 07:13:11;;;;;;;40.65;16.80;;;7.20;99.90;;;;;;5058008;28;20021;-70
2021/11/18 07:15:39;;;;;;;40.10;17.02;;;7.20;99.90;;;;;;5039407;28;20025;-70
2021/11/18 07:18:06;;;;;;;37.03;18.25;;;7.20;99.90;;;;;;5057425;28;20021;-70
2021/11/18 07:20:34;;;;;;;59.90;21.73;;;7.20;99.90;;;;;;5056679;28;20440;-70
2021/11/18 07:23:03;;;;;;;32.30;16.27;;;7.30;99.90;;;;;;5057518;28;20021;-71
2021/11/18 07:25:31;;;;;;;45.53;18.98;;;7.30;99.90;;;;;;5056769;28;20021;-71
2021/11/18 07:27:59;;;;;;;41.80;18.42;;;7.30;99.90;;;;;;5056568;28;20051;-71
2021/11/18 07:30:28;;;;;;;44.67;17.88;;;7.30;99.90;;;;;;5057204;28;20096;-72
2021/11/18 07:32:55;;;;;;;42.85;16.88;;;7.30;99.90;;;;;;5056713;28;20025;-71
2021/11/18 07:35:24;;;;;;;38.63;15.68;;;7.30;99.90;;;;;;5057016;28;20021;-71
2021/11/18 07:37:51;;;;;;;46.45;19.02;;;7.30;99.90;;;;;;5057159;28;20027;-70
2021/11/18 07:40:21;;;;;;;41.22;16.98;;;7.30;99.90;;;;;;5058275;28;20021;-69
2021/11/18 07:42:50;;;;;;;43.95;16.67;;;7.40;99.90;;;;;;5057941;28;20055;-71
2021/11/18 07:45:20;;;;;;;44.17;17.33;;;7.40;99.90;;;;;;5057489;28;20375;-72
2021/11/18 07:47:48;;;;;;;44.53;16.35;;;7.40;99.90;;;;;;5057469;28;20033;-72
2021/11/18 07:50:20;;;;;;;39.40;17.80;;;7.40;99.90;;;;;;5039966;28;20040;-71
2021/11/18 07:52:48;;;;;;;43.17;16.88;;;7.40;99.90;;;;;;5057312;28;20032;-71
2021/11/18 07:55:18;;;;;;;44.15;17.58;;;7.40;99.90;;;;;;5039228;28;20384;-70
2021/11/18 07:57:46;;;;;;;47.22;16.02;;;7.50;99.90;;;;;;5056890;28;20104;-71
2021/11/18 08:00:15;;;;;;;39.22;17.05;;;7.50;99.90;;;;;;5056340;28;20032;-72
2021/11/18 08:02:44;;;;;;;36.35;17.38;;;7.50;99.90;;;;;;5057763;28;20022;-71
2021/11/18 08:05:14;;;;;;;39.40;15.90;;;7.50;99.90;;;;;;5056386;28;20029;-71
2021/11/18 08:07:42;;;;;;;48.28;17.25;;;7.50;99.90;;;;;;5056622;28;20036;-71
2021/11/18 08:10:13;;;;;;;43.55;16.80;;;7.60;99.90;;;;;;5038565;28;20113;-71
2021/11/18 08:12:42;;;;;;;38.70;15.63;;;7.60;99.90;;;;;;5038522;28;20017;-71
2021/11/18 08:15:13;;;;;;;34.53;15.20;;;7.60;99.90;;;;;;5056709;28;20021;-72
2021/11/18 08:17:41;;;;;;;37.65;16.15;;;7.60;99.90;;;;;;5057616;28;20108;-70
2021/11/18 08:20:10;;;;;;;51.80;16.85;;;7.60;99.90;;;;;;5057056;28;20029;-71
2021/11/18 08:22:39;;;;;;;45.30;16.45;;;7.70;99.90;;;;;;5057064;28;20440;-71
2021/11/18 08:25:10;;;;;;;34.28;14.70;;;7.70;99.90;;;;;;5039542;28;20044;-72
2021/11/18 08:27:39;;;;;;;32.95;14.75;;;7.70;99.90;;;;;;5056885;28;20044;-71
2021/11/18 08:30:12;;;;;;;35.40;15.48;;;7.70;99.90;;;;;;5039296;28;20028;-71
2021/11/18 08:32:42;;;;;;;42.97;17.48;;;7.70;99.90;;;;;;5057195;28;20309;-71
2021/11/18 08:35:11;;;;;;;50.63;16.58;;;7.70;99.90;;;;;;5056480;28;20417;-72
2021/11/18 08:37:39;;;;;;;43.22;16.20;;;7.70;99.90;;;;;;5056446;28;20082;-71
2021/11/18 08:40:07;;;;;;;30.40;13.52;;;7.80;99.90;;;;;;5055952;28;20437;-71
2021/11/18 08:42:35;;;;;;;43.28;15.52;;;7.80;99.90;;;;;;5056455;28;20025;-71
2021/11/18 08:45:07;;;;;;;44.67;16.95;;;7.80;99.90;;;;;;5056055;28;20509;-71
2021/11/18 08:47:36;;;;;;;40.28;14.98;;;7.80;99.90;;;;;;5055837;28;20049;-71
2021/11/18 08:50:06;;;;;;;30.60;14.18;;;7.90;99.90;;;;;;5039409;28;20029;-71
2021/11/18 08:52:35;;;;;;;29.35;12.93;;;7.90;99.90;;;;;;5060223;28;20116;-72
2021/11/18 08:55:09;;;;;;;39.90;14.93;;;8.00;99.90;;;;;;5060619;28;20075;-71
2021/11/18 08:57:38;;;;;;;36.72;16.27;;;8.10;99.90;;;;;;5060267;28;20083;-71
2021/11/18 09:00:17;;;;;;;43.10;16.98;;;8.20;99.90;;;;;;5060384;28;20021;-71
2021/11/18 09:02:44;;;;;;;37.50;16.27;;;8.20;99.90;;;;;;5060367;28;20035;-71
2021/11/18 09:05:12;;;;;;;36.80;15.70;;;8.30;99.90;;;;;;5060410;28;20424;-71
2021/11/18 09:07:40;;;;;;;37.17;14.50;;;8.30;99.90;;;;;;5060663;28;20431;-71
2021/11/18 09:10:11;;;;;;;42.35;16.65;;;8.30;99.90;;;;;;5059938;28;20035;-71
2021/11/18 09:12:44;;;;;;;40.38;15.88;;;8.30;99.90;;;;;;5059128;28;20028;-71
2021/11/18 09:15:14;;;;;;;44.58;17.23;;;8.30;99.90;;;;;;5059311;28;20099;-71
2021/11/18 09:17:41;;;;;;;46.25;16.20;;;8.30;99.90;;;;;;5059406;28;20321;-70
2021/11/18 09:20:12;;;;;;;42.95;16.20;;;8.30;99.90;;;;;;5059516;28;20037;-70
2021/11/18 09:22:41;;;;;;;41.38;17.00;;;8.30;99.90;;;;;;5058944;28;20077;-71
2021/11/18 09:25:11;;;;;;;43.42;16.05;;;8.30;99.90;;;;;;5059020;28;20021;-70
2021/11/18 09:27:53;;;;;;;38.47;15.73;;;8.40;99.90;;;;;;5059289;28;20025;-70
2021/11/18 09:30:33;;;;;;;32.58;15.43;;;8.40;99.90;;;;;;5059645;28;20028;-71
2021/11/18 09:33:01;;;;;;;45.10;17.40;;;8.40;99.90;;;;;;5059847;28;20025;-71
2021/11/18 09:35:38;;;;;;;48.13;18.65;;;8.40;99.90;;;;;;5041830;28;20368;-71
2021/11/18 09:38:07;;;;;;;35.67;15.18;;;8.50;99.90;;;;;;5059847;28;20021;-71
2021/11/18 09:40:50;;;;;;;35.05;15.20;;;8.50;99.90;;;;;;5059523;28;20341;-71
2021/11/18 09:43:36;;;;;;;39.38;16.95;;;8.40;99.90;;;;;;5060136;28;20056;-71
2021/11/18 09:46:40;;;;;;;42.83;17.70;;;8.40;99.90;;;;;;5041770;28;20036;-71
2021/11/18 09:49:44;;;;;;;36.88;14.85;;;8.40;99.90;;;;;;5079196;28;20263;-71
2021/11/18 09:52:27;;;;;;;33.92;14.88;;;8.40;99.90;;;;;;5060612;28;20020;-70
2021/11/18 09:55:16;;;;;;;45.30;16.42;;;8.40;99.90;;;;;;5060547;28;20416;-71
2021/11/18 09:58:11;;;;;;;37.30;15.88;;;8.50;99.90;;;;;;5060538;28;20091;-70
2021/11/18 10:01:00;;;;;;;37.83;19.23;;;8.50;99.90;;;;;;5078226;28;20021;-71
2021/11/18 10:03:55;;;;;;;41.95;20.75;;;8.40;99.90;;;;;;5078265;28;20320;-70
2021/11/18 10:06:40;;;;;;;36.78;14.48;;;8.40;99.90;;;;;;5060510;28;20039;-71
2021/11/18 10:09:23;;;;;;;36.05;19.65;;;8.50;99.90;;;;;;5079220;28;20024;-71
2021/11/18 10:12:12;;;;;;;41.55;15.75;;;8.50;99.90;;;;;;5079190;28;20028;-70
2021/11/18 10:15:07;;;;;;;42.05;15.23;;;8.50;99.90;;;;;;5079281;28;20024;-70
2021/11/18 10:17:40;;;;;;;34.05;13.32;;;8.60;99.90;;;;;;5078853;28;20028;-70
2021/11/18 10:20:16;;;;;;;26.80;12.52;;;8.60;99.90;;;;;;5078747;28;20028;-70
2021/11/18 10:22:52;;;;;;;33.97;12.00;;;8.70;99.90;;;;;;5060988;28;20103;-70
2021/11/18 10:25:27;;;;;;;34.78;12.82;;;8.70;99.90;;;;;;5078641;28;20039;-70
2021/11/18 10:28:20;;;;;;;36.33;13.68;;;8.80;99.90;;;;;;5078175;28;20029;-70
2021/11/18 10:31:22;;;;;;;33.97;11.57;;;8.90;99.90;;;;;;5078039;28;20095;-70
2021/11/18 10:33:57;;;;;;;32.63;11.63;;;8.90;99.90;;;;;;5077652;28;20016;-70
2021/11/18 10:36:47;;;;;;;32.53;11.55;;;9.00;99.90;;;;;;5077386;28;20052;-70
2021/11/18 10:39:38;;;;;;;33.95;11.70;;;9.00;99.90;;;;;;5077844;28;20017;-70
2021/11/18 10:42:14;;;;;;;37.85;11.73;;;9.10;99.90;;;;;;5077698;28;20426;-70
2021/11/18 10:44:52;;;;;;;31.08;11.20;;;9.10;99.90;;;;;;5060135;28;20095;-70
2021/11/18 10:47:35;;;;;;;26.40;8.90;;;9.10;99.90;;;;;;5070750;28;20045;-70
2021/11/18 10:50:34;;;;;;;27.17;9.00;;;9.20;99.90;;;;;;5058538;28;20020;-80
2021/11/18 10:53:29;;;;;;;28.00;9.68;;;9.40;99.90;;;;;;5040399;28;20021;-71
2021/11/18 10:56:18;;;;;;;28.30;9.75;;;9.40;99.90;;;;;;5058186;28;20032;-70
2021/11/18 10:59:00;;;;;;;29.40;10.80;;;9.60;99.90;;;;;;5059210;28;20341;-71
2021/11/18 11:01:27;;;;;;;26.52;8.02;;;9.70;99.90;;;;;;5058584;28;20100;-70
2021/11/18 11:04:00;;;;;;;27.20;9.43;;;9.80;99.90;;;;;;5058169;28;20056;-71
2021/11/18 11:06:44;;;;;;;27.77;8.80;;;10.00;99.90;;;;;;5057820;28;20021;-71
2021/11/18 11:09:22;;;;;;;31.60;7.70;;;10.10;99.90;;;;;;5057832;28;20045;-70
2021/11/18 11:12:05;;;;;;;23.63;10.18;;;10.10;99.90;;;;;;5056722;28;20021;-71
2021/11/18 11:14:57;;;;;;;27.23;8.07;;;10.10;99.90;;;;;;5056862;28;20029;-70
2021/11/18 11:17:40;;;;;;;24.20;8.20;;;10.20;99.90;;;;;;5057382;28;20021;-70
2021/11/18 11:20:16;;;;;;;22.95;7.90;;;10.10;99.90;;;;;;5039083;28;20108;-70
2021/11/18 11:23:13;;;;;;;22.23;7.40;;;10.00;99.90;;;;;;5057285;28;20025;-70
2021/11/18 11:25:53;;;;;;;27.35;8.73;;;10.00;99.90;;;;;;5058229;28;20028;-70
2021/11/18 11:28:56;;;;;;;27.67;8.60;;;10.00;99.90;;;;;;5058049;28;20044;-71
2021/11/18 11:31:55;;;;;;;13.65;5.63;;;10.00;99.90;;;;;;5039874;28;20158;-70
2021/11/18 11:34:29;;;;;;;26.85;7.93;;;10.00;99.90;;;;;;5039061;28;20021;-70
2021/11/18 11:37:15;;;;;;;26.00;7.45;;;9.90;99.90;;;;;;5057996;28;20033;-71
2021/11/18 11:40:00;;;;;;;24.70;7.97;;;9.90;99.90;;;;;;5057599;28;20021;-70
2021/11/18 11:43:04;;;;;;;23.17;6.45;;;9.90;99.90;;;;;;5056497;28;20266;-71
2021/11/18 11:45:35;;;;;;;22.15;7.28;;;9.90;99.90;;;;;;5056425;28;20051;-71
2021/11/18 11:48:16;;;;;;;22.23;6.07;;;10.00;99.90;;;;;;5056517;28;20044;-70
2021/11/18 11:51:19;;;;;;;23.15;8.63;;;10.10;99.90;;;;;;5056616;28;20052;-71
2021/11/18 11:54:02;;;;;;;20.48;6.95;;;10.20;99.90;;;;;;5038733;28;20027;-73
2021/11/18 11:56:39;;;;;;;18.42;6.13;;;10.20;99.90;;;;;;5056323;28;20104;-70
2021/11/18 11:59:16;;;;;;;19.85;5.63;;;10.30;99.90;;;;;;5056459;28;20100;-71
2021/11/18 12:02:07;;;;;;;18.42;5.85;;;10.20;99.90;;;;;;5039525;28;20021;-70
2021/11/18 12:04:40;;;;;;;25.45;6.82;;;10.20;99.90;;;;;;5057262;28;20048;-71
2021/11/18 12:07:28;;;;;;;33.85;8.00;;;10.30;99.90;;;;;;5057552;28;20099;-71
2021/11/18 12:10:11;;;;;;;22.25;6.28;;;10.30;99.90;;;;;;5057203;28;20120;-71
2021/11/18 12:12:54;;;;;;;14.90;5.15;;;10.40;99.90;;;;;;5057678;28;20028;-71
2021/11/18 12:15:23;;;;;;;18.10;5.30;;;10.60;99.90;;;;;;5039516;28;20028;-71
2021/11/18 12:17:54;;;;;;;20.17;5.60;;;10.70;99.90;;;;;;5056524;28;20151;-71
2021/11/18 12:20:27;;;;;;;20.40;6.90;;;10.70;99.90;;;;;;5056602;28;20028;-71
2021/11/18 12:23:00;;;;;;;18.85;6.22;;;10.60;99.90;;;;;;5038450;28;20032;-71
2021/11/18 12:25:42;;;;;;;20.30;6.53;;;10.50;99.90;;;;;;5059829;28;20029;-71
2021/11/18 12:28:13;;;;;;;22.95;6.22;;;10.50;99.90;;;;;;5059906;28;20021;-71
2021/11/18 12:31:02;;;;;;;21.55;6.05;;;10.40;99.90;;;;;;5060501;28;20371;-71
2021/11/18 12:33:30;;;;;;;27.15;6.82;;;10.40;99.90;;;;;;5060617;28;20401;-71
2021/11/18 12:36:21;;;;;;;19.52;5.78;;;10.40;99.90;;;;;;5060382;28;20025;-71
2021/11/18 12:39:27;;;;;;;26.38;6.40;;;10.50;99.90;;;;;;5061073;28;20417;-71
2021/11/18 12:42:16;;;;;;;17.52;5.72;;;10.50;99.90;;;;;;5061161;28;20132;-71
2021/11/18 12:45:22;;;;;;;15.15;5.40;;;10.50;99.90;;;;;;5061221;28;20017;-71
2021/11/18 12:47:53;;;;;;;22.70;5.40;;;10.50;99.90;;;;;;5058720;28;20048;-71
2021/11/18 12:50:42;;;;;;;14.20;3.97;;;10.30;99.90;;;;;;5060981;28;20026;-70
2021/11/18 12:55:07;;;;;;;15.70;5.38;;;10.20;99.90;;;;;;5157170;27;20103;-71
2021/11/18 12:57:44;;;;;;;23.48;6.32;;;10.20;99.90;;;;;;5134717;28;20034;-71
2021/11/18 13:00:24;;;;;;;24.00;6.05;;;10.20;99.90;;;;;;5135964;27;20072;-71
2021/11/18 13:02:59;;;;;;;20.10;6.07;;;10.10;99.90;;;;;;5135878;27;20068;-71
2021/11/18 13:05:49;;;;;;;18.27;5.85;;;10.10;99.90;;;;;;5125952;28;20323;-71
2021/11/18 13:08:36;;;;;;;17.00;5.00;;;10.10;99.90;;;;;;5115433;28;20026;-71
2021/11/18 13:11:21;;;;;;;;;;;10.10;99.90;;;;;;5116130;28;20020;-71